Terminal Aerodrome Forecast
Issued by NWS

Home | Current Version | Previous Version | Text Only | Print | Product List | Glossary On
Versions: 1 2 3 4 5 6 7 8 9 10 11 12 13 14 15 16
655
FTUS45 KVEF 212331
TAFEED
TAF
KEED 212331Z 2200/2224 27010KT P6SM FEW250
     FM220200 25008KT P6SM BKN200
     FM221600 23010KT P6SM SCT080 BKN120
     FM222100 19010KT P6SM VCSH SCT050 BKN070=

USA.gov is the U.S. government's official web portal to all federal, state and local government web resources and services.